createdAt,value
2018-06-17T00:01:18.370Z,16.73
2018-06-17T00:03:50.453Z,12.27
2018-06-17T00:06:23.503Z,13.63
2018-06-17T00:08:56.582Z,18.33
2018-06-17T00:11:29.784Z,19.23
2018-06-17T00:14:02.863Z,13.17
2018-06-17T00:16:36.089Z,11.53
2018-06-17T00:19:09.140Z,7.93
2018-06-17T00:21:42.212Z,7.00
2018-06-17T00:24:15.242Z,11.40
2018-06-17T00:26:48.535Z,8.17
2018-06-17T00:29:21.638Z,10.40
2018-06-17T00:31:54.860Z,7.23
2018-06-17T00:34:28.088Z,6.67
2018-06-17T00:37:01.101Z,8.63
2018-06-17T00:39:34.210Z,10.30
2018-06-17T00:42:07.304Z,9.40
2018-06-17T00:44:40.338Z,6.37
2018-06-17T00:47:13.452Z,13.80
2018-06-17T00:49:46.466Z,18.17
2018-06-17T00:52:19.515Z,19.07
2018-06-17T00:54:52.508Z,12.00
2018-06-17T00:57:34.379Z,12.40
2018-06-17T01:00:08.365Z,8.93
2018-06-17T01:02:41.536Z,8.70
2018-06-17T01:05:14.861Z,8.03
2018-06-17T01:07:48.036Z,12.23
2018-06-17T01:10:21.025Z,7.90
2018-06-17T01:12:54.105Z,21.37
2018-06-17T01:15:27.354Z,8.97
2018-06-17T01:18:01.600Z,14.80
2018-06-17T01:20:34.655Z,8.77
2018-06-17T01:23:07.804Z,15.77
2018-06-17T01:25:40.861Z,8.77
2018-06-17T01:28:13.848Z,9.70
2018-06-17T01:30:46.928Z,9.17
2018-06-17T01:33:20.106Z,9.83
2018-06-17T01:35:53.241Z,7.67
2018-06-17T01:38:26.457Z,8.70
2018-06-17T01:41:00.088Z,8.23
2018-06-17T01:43:33.193Z,7.60
2018-06-17T01:46:04.767Z,11.67
2018-06-17T01:48:37.863Z,7.27
2018-06-17T01:51:10.848Z,10.90
2018-06-17T01:53:43.928Z,6.43
2018-06-17T01:56:17.018Z,7.70
2018-06-17T01:58:50.319Z,7.20
2018-06-17T02:01:23.434Z,7.83
2018-06-17T02:04:00.472Z,6.60
2018-06-17T02:06:37.552Z,8.57
2018-06-17T02:11:16.802Z,8.43
2018-06-17T02:13:49.893Z,7.27
2018-06-17T02:16:22.938Z,7.97
2018-06-17T02:18:56.142Z,7.37
2018-06-17T02:21:29.165Z,8.80
2018-06-17T02:24:02.269Z,7.27
2018-06-17T02:26:35.428Z,7.37
2018-06-17T02:29:08.608Z,7.70
2018-06-17T02:31:41.228Z,7.87
2018-06-17T02:34:14.381Z,7.87
2018-06-17T02:36:47.481Z,8.57
2018-06-17T02:39:20.496Z,9.83
2018-06-17T02:41:53.568Z,8.13
2018-06-17T02:44:26.592Z,8.33
2018-06-17T02:47:03.891Z,12.23
2018-06-17T02:49:39.771Z,7.70
2018-06-17T02:52:17.306Z,7.80
2018-06-17T02:54:51.131Z,9.73
2018-06-17T02:57:24.147Z,11.57
2018-06-17T02:59:57.161Z,9.73
2018-06-17T03:02:30.265Z,13.63
2018-06-17T03:05:03.304Z,12.20
2018-06-17T03:07:36.322Z,7.53
2018-06-17T03:10:07.944Z,14.80
2018-06-17T03:12:40.997Z,11.63
2018-06-17T03:15:14.013Z,8.47
2018-06-17T03:17:47.063Z,10.50
2018-06-17T03:20:20.230Z,8.73
2018-06-17T03:22:53.472Z,10.27
2018-06-17T03:25:29.278Z,12.90
2018-06-17T03:28:06.510Z,11.67
2018-06-17T03:30:43.557Z,9.70
2018-06-17T03:33:20.747Z,8.60
2018-06-17T03:35:57.892Z,9.27
2018-06-17T03:38:31.005Z,10.10
2018-06-17T03:41:04.092Z,11.07
2018-06-17T03:43:37.260Z,10.40
2018-06-17T03:46:10.577Z,12.13
2018-06-17T03:48:43.639Z,11.27
2018-06-17T03:51:16.702Z,9.57
2018-06-17T03:53:50.184Z,8.43
2018-06-17T03:56:23.526Z,10.97
2018-06-17T03:58:56.629Z,10.77
2018-06-17T04:01:29.685Z,9.77
2018-06-17T04:04:02.740Z,10.30
2018-06-17T04:06:35.932Z,9.83
2018-06-17T04:09:11.340Z,10.23
2018-06-17T04:11:44.382Z,15.10
2018-06-17T04:14:17.472Z,9.80
2018-06-17T04:16:50.756Z,12.33
2018-06-17T04:19:23.856Z,9.70
2018-06-17T04:21:56.944Z,11.93
2018-06-17T04:24:30.141Z,10.70
2018-06-17T04:27:03.314Z,10.60
2018-06-17T04:29:36.565Z,10.73
2018-06-17T04:32:09.866Z,11.70
2018-06-17T04:34:43.360Z,11.50
2018-06-17T04:37:16.473Z,16.43
2018-06-17T04:39:49.561Z,13.67
2018-06-17T04:42:22.635Z,14.23
2018-06-17T04:44:55.618Z,18.43
2018-06-17T04:47:28.724Z,12.57
2018-06-17T04:50:01.866Z,12.63
2018-06-17T04:52:34.913Z,12.20
2018-06-17T04:55:08.073Z,12.63
2018-06-17T04:57:41.461Z,12.83
2018-06-17T05:00:14.635Z,16.67
2018-06-17T05:02:47.825Z,12.60
2018-06-17T05:05:20.941Z,17.50
2018-06-17T05:07:54.081Z,12.63
2018-06-17T05:10:27.707Z,13.33
2018-06-17T05:13:05.069Z,13.57
2018-06-17T05:15:38.239Z,21.47
2018-06-17T05:18:11.402Z,14.27
2018-06-17T05:20:44.442Z,15.30
2018-06-17T05:23:17.509Z,15.20
2018-06-17T05:25:50.705Z,15.67
2018-06-17T05:28:24.173Z,14.50
2018-06-17T05:30:59.388Z,18.57
2018-06-17T05:33:32.677Z,19.03
2018-06-17T05:36:05.785Z,16.63
2018-06-17T05:38:38.852Z,17.87
2018-06-17T05:41:10.877Z,14.60
2018-06-17T05:43:43.876Z,16.37
2018-06-17T05:46:17.055Z,13.80
2018-06-17T05:48:51.037Z,15.40
2018-06-17T05:51:24.210Z,14.83
2018-06-17T05:53:57.303Z,14.00
2018-06-17T05:56:30.557Z,16.37
2018-06-17T05:59:03.825Z,17.50
2018-06-17T06:01:37.005Z,18.20
2018-06-17T06:04:10.473Z,16.00
2018-06-17T06:06:44.107Z,14.30
2018-06-17T06:09:17.185Z,15.10
2018-06-17T06:11:50.340Z,14.03
2018-06-17T06:14:23.491Z,15.23
2018-06-17T06:16:56.581Z,20.90
2018-06-17T06:19:29.651Z,13.83
2018-06-17T06:22:02.807Z,13.60
2018-06-17T06:24:35.951Z,14.20
2018-06-17T06:27:09.033Z,13.93
2018-06-17T06:29:42.179Z,14.93
2018-06-17T06:32:15.238Z,14.83
2018-06-17T06:34:48.464Z,14.60
2018-06-17T06:37:21.567Z,16.57
2018-06-17T06:39:55.340Z,14.03
2018-06-17T06:42:28.429Z,24.33
2018-06-17T06:45:01.628Z,16.80
2018-06-17T06:47:35.006Z,14.43
2018-06-17T06:50:08.473Z,15.37
2018-06-17T06:52:42.526Z,14.97
2018-06-17T06:55:15.884Z,13.47
2018-06-17T06:57:49.069Z,14.27
2018-06-17T07:00:22.361Z,15.33
2018-06-17T07:03:04.500Z,13.00
2018-06-17T07:05:46.296Z,14.73
2018-06-17T07:08:28.231Z,12.93
2018-06-17T07:11:01.282Z,16.83
2018-06-17T07:13:32.962Z,16.10
2018-06-17T07:16:14.937Z,12.87
2018-06-17T07:18:47.953Z,13.20
2018-06-17T07:21:21.011Z,12.37
2018-06-17T07:23:54.138Z,14.73
2018-06-17T07:26:37.497Z,12.53
2018-06-17T07:29:19.595Z,13.30
2018-06-17T07:31:53.033Z,15.23
2018-06-17T07:34:26.096Z,13.07
2018-06-17T07:36:59.454Z,12.73
2018-06-17T07:41:40.291Z,13.20
2018-06-17T07:44:13.268Z,13.83
2018-06-17T07:46:47.573Z,14.50
2018-06-17T07:49:37.881Z,14.13
2018-06-17T07:52:20.832Z,17.43
2018-06-17T07:54:53.942Z,15.10
2018-06-17T07:57:28.288Z,15.97
2018-06-17T08:00:01.392Z,20.10
2018-06-17T08:02:34.567Z,15.63
2018-06-17T08:05:07.883Z,18.50
2018-06-17T08:07:41.115Z,18.03
2018-06-17T08:10:14.292Z,17.50
2018-06-17T08:12:47.337Z,14.47
2018-06-17T08:15:20.560Z,15.40
2018-06-17T08:17:53.816Z,15.57
2018-06-17T08:20:26.937Z,20.97
2018-06-17T08:22:59.963Z,21.10
2018-06-17T08:25:33.136Z,15.50
2018-06-17T08:28:06.443Z,14.10
2018-06-17T08:30:39.474Z,15.93
2018-06-17T08:33:12.503Z,16.83
2018-06-17T08:35:45.548Z,15.63
2018-06-17T08:38:18.889Z,17.70
2018-06-17T08:40:52.045Z,16.57
2018-06-17T08:43:34.502Z,19.70
2018-06-17T08:46:07.629Z,18.47
2018-06-17T08:48:41.742Z,15.53
2018-06-17T08:51:14.966Z,15.00
2018-06-17T08:53:48.033Z,15.60
2018-06-17T08:56:21.250Z,24.05
2018-06-17T08:58:54.384Z,16.83
2018-06-17T09:01:34.251Z,15.13
2018-06-17T09:04:07.349Z,18.10
2018-06-17T09:06:40.509Z,18.40
2018-06-17T09:09:15.137Z,17.83
2018-06-17T09:11:48.288Z,17.30
2018-06-17T09:14:21.379Z,21.67
2018-06-17T09:16:54.462Z,19.50
2018-06-17T09:19:28.149Z,20.70
2018-06-17T09:22:01.629Z,28.20
2018-06-17T09:24:34.813Z,23.70
2018-06-17T09:27:07.902Z,22.00
2018-06-17T09:29:52.107Z,23.10
2018-06-17T09:32:25.212Z,26.70
2018-06-17T09:34:58.241Z,29.37
2018-06-17T09:37:31.342Z,27.60
2018-06-17T09:40:04.437Z,24.53
2018-06-17T09:42:38.084Z,29.23
2018-06-17T09:45:11.219Z,25.93
2018-06-17T09:47:44.333Z,26.00
2018-06-17T09:50:17.420Z,31.80
2018-06-17T09:52:50.498Z,27.00
2018-06-17T09:55:23.724Z,27.63
2018-06-17T09:57:57.004Z,30.83
2018-06-17T10:00:30.043Z,34.50
2018-06-17T10:03:03.125Z,33.13
2018-06-17T10:05:36.253Z,29.13
2018-06-17T10:08:09.340Z,36.27
2018-06-17T10:10:52.899Z,27.57
2018-06-17T10:13:28.184Z,28.93
2018-06-17T10:16:01.405Z,27.43
2018-06-17T10:18:34.629Z,30.00
2018-06-17T10:21:07.866Z,27.33
2018-06-17T10:23:40.855Z,26.67
2018-06-17T10:26:13.867Z,31.53
2018-06-17T10:28:46.888Z,29.60
2018-06-17T10:31:19.984Z,25.33
2018-06-17T10:33:53.703Z,27.67
2018-06-17T10:36:26.818Z,42.37
2018-06-17T10:39:00.034Z,26.40
2018-06-17T10:41:31.696Z,10.57
2018-06-17T10:44:04.820Z,11.93
2018-06-17T10:46:38.188Z,5.57
2018-06-17T10:49:11.312Z,3.70
2018-06-17T10:51:44.466Z,7.50
2018-06-17T10:54:17.580Z,6.63
2018-06-17T10:56:50.797Z,3.67
2018-06-17T10:59:24.060Z,2.60
2018-06-17T11:01:57.111Z,1.83
2018-06-17T11:04:30.119Z,2.03
2018-06-17T11:07:03.249Z,1.30
2018-06-17T11:09:36.471Z,1.43
2018-06-17T11:12:09.545Z,1.83
2018-06-17T11:14:42.560Z,2.90
2018-06-17T11:17:16.793Z,1.17
2018-06-17T11:19:50.082Z,1.77
2018-06-17T11:22:23.325Z,1.27
2018-06-17T11:24:56.646Z,3.37
2018-06-17T11:27:29.829Z,1.90
2018-06-17T11:30:02.876Z,1.37
2018-06-17T11:32:36.004Z,1.33
2018-06-17T11:35:09.201Z,1.97
2018-06-17T11:37:42.160Z,1.23
2018-06-17T11:40:15.351Z,4.10
2018-06-17T11:42:48.390Z,3.20
2018-06-17T11:45:21.541Z,3.20
2018-06-17T11:47:54.588Z,2.83
2018-06-17T11:50:27.701Z,4.40
2018-06-17T11:53:00.912Z,1.43
2018-06-17T11:55:34.289Z,5.50
2018-06-17T11:58:07.420Z,1.60
2018-06-17T12:00:40.426Z,2.27
2018-06-17T12:03:13.613Z,1.83
2018-06-17T12:05:46.740Z,1.67
2018-06-17T12:08:20.939Z,2.80
2018-06-17T12:10:54.014Z,2.43
2018-06-17T12:13:27.180Z,1.93
2018-06-17T12:16:00.331Z,2.60
2018-06-17T12:18:33.381Z,2.90
2018-06-17T12:21:06.728Z,2.37
2018-06-17T12:23:39.784Z,3.10
2018-06-17T12:26:12.853Z,2.90
2018-06-17T12:28:45.920Z,4.03
2018-06-17T12:31:19.030Z,3.60
2018-06-17T12:33:52.168Z,3.47
2018-06-17T12:36:25.340Z,2.73
2018-06-17T12:38:58.409Z,3.23
2018-06-17T12:41:31.488Z,2.90
2018-06-17T12:44:04.526Z,3.13
2018-06-17T12:46:37.589Z,3.10
2018-06-17T12:49:11.616Z,4.23
2018-06-17T12:51:44.714Z,4.20
2018-06-17T12:54:18.553Z,6.90
2018-06-17T12:56:51.670Z,3.23
2018-06-17T12:59:24.876Z,3.83
2018-06-17T13:01:57.916Z,3.10
2018-06-17T13:04:31.164Z,3.40
2018-06-17T13:07:04.173Z,3.77
2018-06-17T13:09:37.358Z,5.17
2018-06-17T13:12:10.600Z,7.47
2018-06-17T13:14:43.617Z,6.23
2018-06-17T13:17:16.779Z,4.50
2018-06-17T13:19:49.827Z,11.03
2018-06-17T13:22:22.916Z,8.87
2018-06-17T13:24:55.957Z,10.77
2018-06-17T13:27:29.012Z,3.60
2018-06-17T13:30:02.031Z,12.00
2018-06-17T13:32:35.067Z,12.77
2018-06-17T13:35:08.244Z,8.47
2018-06-17T13:37:41.474Z,10.10
2018-06-17T13:40:14.567Z,7.87
2018-06-17T13:42:48.735Z,9.90
2018-06-17T13:45:22.371Z,4.70
2018-06-17T13:47:55.451Z,8.90
2018-06-17T13:50:28.505Z,6.50
2018-06-17T13:53:01.677Z,11.97
2018-06-17T13:55:34.765Z,12.43
2018-06-17T13:58:07.872Z,10.27
2018-06-17T14:00:42.378Z,13.43
2018-06-17T14:03:16.492Z,22.63
2018-06-17T14:05:49.685Z,16.37
2018-06-17T14:08:22.776Z,6.70
2018-06-17T14:10:57.060Z,16.07
2018-06-17T14:13:28.664Z,9.33
2018-06-17T14:16:06.169Z,6.80
2018-06-17T14:18:39.393Z,12.20
2018-06-17T14:21:12.473Z,7.00
2018-06-17T14:23:45.669Z,17.57
2018-06-17T14:26:18.773Z,16.27
2018-06-17T14:28:51.783Z,8.03
2018-06-17T14:31:24.980Z,6.27
2018-06-17T14:33:58.420Z,14.13
2018-06-17T14:36:31.497Z,30.80
2018-06-17T14:39:04.955Z,12.53
2018-06-17T14:41:38.127Z,12.33
2018-06-17T14:44:15.850Z,7.10
2018-06-17T14:46:53.060Z,8.33
2018-06-17T14:49:30.231Z,11.33
2018-06-17T14:53:09.092Z,23.03
2018-06-17T14:55:42.235Z,24.87
2018-06-17T14:58:15.341Z,20.53
2018-06-17T15:00:48.495Z,22.60
2018-06-17T15:03:21.603Z,25.47
2018-06-17T15:05:54.710Z,15.30
2018-06-17T15:08:27.842Z,13.90
2018-06-17T15:11:00.842Z,28.47
2018-06-17T15:13:33.999Z,12.77
2018-06-17T15:16:07.244Z,17.83
2018-06-17T15:18:40.527Z,18.73
2018-06-17T15:21:13.681Z,16.07
2018-06-17T15:23:46.911Z,26.10
2018-06-17T15:26:20.048Z,16.00
2018-06-17T15:28:53.204Z,18.33
2018-06-17T15:31:30.408Z,16.23
2018-06-17T15:34:07.576Z,22.33
2018-06-17T15:36:45.712Z,27.83
2018-06-17T15:39:22.785Z,19.53
2018-06-17T15:41:55.963Z,14.47
2018-06-17T15:44:29.908Z,16.07
2018-06-17T15:47:03.021Z,16.83
2018-06-17T15:49:36.160Z,21.50
2018-06-17T15:52:09.609Z,21.13
2018-06-17T15:54:42.896Z,34.23
2018-06-17T15:57:15.904Z,19.30
2018-06-17T15:59:49.030Z,27.30
2018-06-17T16:02:22.159Z,10.53
2018-06-17T16:04:55.235Z,10.60
2018-06-17T16:07:28.412Z,19.07
2018-06-17T16:10:01.569Z,25.10
2018-06-17T16:12:38.852Z,12.10
2018-06-17T16:15:15.963Z,15.60
2018-06-17T16:17:53.197Z,21.20
2018-06-17T16:20:30.521Z,9.60
2018-06-17T16:23:03.649Z,13.20
2018-06-17T16:25:36.768Z,11.10
2018-06-17T16:28:10.440Z,18.47
2018-06-17T16:30:43.584Z,18.07
2018-06-17T16:33:16.682Z,14.77
2018-06-17T16:35:50.015Z,14.37
2018-06-17T16:38:23.177Z,16.97
2018-06-17T16:40:56.264Z,26.87
2018-06-17T16:43:29.335Z,13.00
2018-06-17T16:46:02.372Z,9.03
2018-06-17T16:48:35.390Z,10.40
2018-06-17T16:51:12.563Z,12.57
2018-06-17T16:53:49.909Z,10.40
2018-06-17T16:56:27.191Z,14.30
2018-06-17T16:59:04.485Z,12.10
2018-06-17T17:01:37.836Z,9.90
2018-06-17T17:04:11.204Z,7.40
2018-06-17T17:06:44.205Z,25.70
2018-06-17T17:09:17.273Z,25.83
2018-06-17T17:11:50.420Z,10.33
2018-06-17T17:14:23.525Z,20.20
2018-06-17T17:16:56.552Z,9.03
2018-06-17T17:19:29.624Z,14.37
2018-06-17T17:22:02.658Z,16.37
2018-06-17T17:24:35.776Z,12.80
2018-06-17T17:27:08.829Z,13.53
2018-06-17T17:29:41.872Z,24.27
2018-06-17T17:32:19.224Z,12.33
2018-06-17T17:34:56.357Z,6.20
2018-06-17T17:37:33.768Z,11.90
2018-06-17T17:40:11.853Z,2.40
2018-06-17T17:42:45.403Z,3.47
2018-06-17T17:45:20.293Z,1.50
2018-06-17T17:47:53.349Z,1.23
2018-06-17T17:50:26.500Z,0.73
2018-06-17T17:52:59.552Z,1.70
2018-06-17T17:55:32.629Z,3.23
2018-06-17T17:58:05.699Z,1.80
2018-06-17T18:00:38.770Z,0.70
2018-06-17T18:03:11.826Z,1.23
2018-06-17T18:05:44.880Z,0.70
2018-06-17T18:08:17.920Z,2.13
2018-06-17T18:10:51.388Z,1.03
2018-06-17T18:13:24.360Z,2.20
2018-06-17T18:15:57.473Z,4.10
2018-06-17T18:18:30.556Z,4.77
2018-06-17T18:21:03.685Z,2.50
2018-06-17T18:23:36.767Z,4.97
2018-06-17T18:26:14.136Z,5.60
2018-06-17T18:28:51.486Z,1.63
2018-06-17T18:31:24.538Z,3.53
2018-06-17T18:34:01.669Z,2.70
2018-06-17T18:36:34.918Z,4.10
2018-06-17T18:39:09.751Z,12.20
2018-06-17T18:41:42.773Z,2.53
2018-06-17T18:44:15.858Z,3.77
2018-06-17T18:46:48.956Z,16.43
2018-06-17T18:49:22.065Z,4.40
2018-06-17T18:51:55.129Z,3.03
2018-06-17T18:54:29.075Z,6.20
2018-06-17T18:57:02.193Z,1.90
2018-06-17T18:59:36.056Z,5.63
2018-06-17T19:02:09.088Z,6.83
2018-06-17T19:04:42.517Z,4.93
2018-06-17T19:07:15.694Z,7.97
2018-06-17T19:09:52.846Z,3.10
2018-06-17T19:12:29.935Z,5.07
2018-06-17T19:15:06.989Z,6.53
2018-06-17T19:17:44.181Z,5.17
2018-06-17T19:20:17.339Z,1.40
2018-06-17T19:22:50.370Z,3.30
2018-06-17T19:25:23.657Z,1.40
2018-06-17T19:27:56.717Z,5.47
2018-06-17T19:30:29.876Z,11.30
2018-06-17T19:33:02.990Z,3.50
2018-06-17T19:35:36.199Z,11.33
2018-06-17T19:38:09.253Z,12.00
2018-06-17T19:40:42.310Z,6.93
2018-06-17T19:43:15.351Z,11.50
2018-06-17T19:45:48.534Z,8.13
2018-06-17T19:48:21.621Z,9.80
2018-06-17T19:50:58.785Z,5.73
2018-06-17T19:53:35.869Z,3.23
2018-06-17T19:56:12.938Z,6.00
2018-06-17T19:58:50.026Z,8.57
2018-06-17T20:01:23.148Z,12.17
2018-06-17T20:03:56.237Z,8.33
2018-06-17T20:06:29.513Z,17.70
2018-06-17T20:09:02.531Z,10.90
2018-06-17T20:11:35.657Z,4.70
2018-06-17T20:14:09.868Z,7.47
2018-06-17T20:16:43.722Z,8.77
2018-06-17T20:19:16.729Z,8.93
2018-06-17T20:21:49.767Z,12.37
2018-06-17T20:24:21.366Z,12.00
2018-06-17T20:26:54.368Z,13.20
2018-06-17T20:29:27.479Z,8.90
2018-06-17T20:32:04.728Z,13.77
2018-06-17T20:34:42.104Z,19.73
2018-06-17T20:37:19.411Z,12.37
2018-06-17T20:39:56.159Z,11.57
2018-06-17T20:42:33.305Z,12.90
2018-06-17T20:45:06.546Z,6.90
2018-06-17T20:47:39.685Z,6.93
2018-06-17T20:50:12.740Z,3.00
2018-06-17T20:52:45.900Z,9.63
2018-06-17T20:55:19.090Z,17.53
2018-06-17T20:57:52.138Z,4.47
2018-06-17T21:00:25.229Z,15.07
2018-06-17T21:02:58.320Z,10.93
2018-06-17T21:05:31.527Z,7.50
2018-06-17T21:08:04.657Z,11.73
2018-06-17T21:10:36.455Z,10.33
2018-06-17T21:13:09.757Z,13.30
2018-06-17T21:15:42.874Z,11.30
2018-06-17T21:18:16.352Z,19.67
2018-06-17T21:20:53.510Z,13.03
2018-06-17T21:23:30.752Z,7.03
2018-06-17T21:26:07.833Z,5.67
2018-06-17T21:28:40.914Z,12.33
2018-06-17T21:31:14.119Z,7.13
2018-06-17T21:33:47.228Z,16.20
2018-06-17T21:36:20.373Z,6.50
2018-06-17T21:38:53.433Z,7.17
2018-06-17T21:41:26.523Z,5.30
2018-06-17T21:43:59.605Z,4.27
2018-06-17T21:46:32.734Z,10.20
2018-06-17T21:49:05.861Z,6.47
2018-06-17T21:51:38.985Z,5.77
2018-06-17T21:54:12.712Z,4.10
2018-06-17T21:56:45.969Z,6.53
2018-06-17T21:59:19.211Z,3.10
2018-06-17T22:01:52.718Z,5.70
2018-06-17T22:04:29.956Z,8.07
2018-06-17T22:07:03.153Z,3.43
2018-06-17T22:09:39.148Z,5.90
2018-06-17T22:12:16.392Z,12.80
2018-06-17T22:14:53.526Z,6.27
2018-06-17T22:17:30.737Z,6.10
2018-06-17T22:20:03.812Z,9.27
2018-06-17T22:22:36.823Z,9.03
2018-06-17T22:25:09.897Z,12.77
2018-06-17T22:27:42.941Z,6.60
2018-06-17T22:30:16.072Z,10.23
2018-06-17T22:32:49.216Z,10.30
2018-06-17T22:35:22.688Z,12.13
2018-06-17T22:37:55.801Z,12.63
2018-06-17T22:40:28.858Z,6.20
2018-06-17T22:43:01.979Z,10.03
2018-06-17T22:45:35.066Z,6.90
2018-06-17T22:48:08.373Z,7.00
2018-06-17T22:50:41.450Z,8.90
2018-06-17T22:53:23.484Z,4.60
2018-06-17T22:55:56.590Z,10.17
2018-06-17T22:58:33.671Z,2.67
2018-06-17T23:01:11.029Z,8.23
2018-06-17T23:03:48.077Z,7.27
2018-06-17T23:06:25.373Z,8.40
2018-06-17T23:09:02.589Z,5.07
2018-06-17T23:11:35.775Z,16.70
2018-06-17T23:14:08.813Z,5.00
2018-06-17T23:16:41.905Z,8.83
2018-06-17T23:19:15.027Z,2.20
2018-06-17T23:21:48.080Z,3.23
2018-06-17T23:24:21.185Z,6.53
2018-06-17T23:26:55.153Z,3.53
2018-06-17T23:29:28.178Z,14.33
2018-06-17T23:32:01.351Z,3.57
2018-06-17T23:34:34.492Z,6.00
2018-06-17T23:37:07.697Z,6.93
2018-06-17T23:39:40.832Z,4.30
2018-06-17T23:42:13.924Z,8.07
2018-06-17T23:44:47.857Z,5.00
2018-06-17T23:47:25.003Z,9.03
2018-06-17T23:50:02.124Z,11.13
2018-06-17T23:52:39.206Z,5.30
2018-06-17T23:55:16.290Z,3.47
2018-06-17T23:57:49.354Z,4.60
